sensor_id;sensor_type;location;lat;lon;timestamp;temperature;humidity
62339;DHT22;48368;53.406;6.214;2023-07-02T00:01:10;15.60;99.90
62339;DHT22;48368;53.406;6.214;2023-07-02T00:03:38;15.60;99.90
62339;DHT22;48368;53.406;6.214;2023-07-02T00:06:03;15.50;99.90
62339;DHT22;48368;53.406;6.214;2023-07-02T00:08:29;15.50;99.90
62339;DHT22;48368;53.406;6.214;2023-07-02T00:10:55;15.50;99.90
62339;DHT22;48368;53.406;6.214;2023-07-02T00:13:20;15.50;99.90
62339;DHT22;48368;53.406;6.214;2023-07-02T00:15:46;15.50;99.90
62339;DHT22;48368;53.406;6.214;2023-07-02T00:18:11;15.40;99.90
62339;DHT22;48368;53.406;6.214;2023-07-02T00:20:42;15.40;99.90
62339;DHT22;48368;53.406;6.214;2023-07-02T00:23:08;15.30;99.90
62339;DHT22;48368;53.406;6.214;2023-07-02T00:25:37;15.30;99.90
62339;DHT22;48368;53.406;6.214;2023-07-02T00:28:03;15.30;99.90
62339;DHT22;48368;53.406;6.214;2023-07-02T00:30:29;15.30;99.90
62339;DHT22;48368;53.406;6.214;2023-07-02T00:32:55;15.30;99.90
62339;DHT22;48368;53.406;6.214;2023-07-02T00:35:21;15.30;99.90
62339;DHT22;48368;53.406;6.214;2023-07-02T00:37:47;15.20;99.90
62339;DHT22;48368;53.406;6.214;2023-07-02T00:40:15;15.20;99.90
62339;DHT22;48368;53.406;6.214;2023-07-02T00:42:40;15.20;99.90
62339;DHT22;48368;53.406;6.214;2023-07-02T00:45:06;15.20;99.90
62339;DHT22;48368;53.406;6.214;2023-07-02T00:47:34;15.20;99.90
62339;DHT22;48368;53.406;6.214;2023-07-02T00:50:00;15.10;99.90
62339;DHT22;48368;53.406;6.214;2023-07-02T00:52:27;15.10;99.90
62339;DHT22;48368;53.406;6.214;2023-07-02T00:54:52;15.10;99.90
62339;DHT22;48368;53.406;6.214;2023-07-02T00:57:19;15.10;99.90
62339;DHT22;48368;53.406;6.214;2023-07-02T00:59:44;15.10;99.90
62339;DHT22;48368;53.406;6.214;2023-07-02T01:02:10;15.00;99.90
62339;DHT22;48368;53.406;6.214;2023-07-02T01:04:38;15.10;99.90
62339;DHT22;48368;53.406;6.214;2023-07-02T01:07:04;15.10;99.90
62339;DHT22;48368;53.406;6.214;2023-07-02T01:09:35;15.00;99.90
62339;DHT22;48368;53.406;6.214;2023-07-02T01:12:04;14.90;99.90
62339;DHT22;48368;53.406;6.214;2023-07-02T01:14:37;14.90;99.90
62339;DHT22;48368;53.406;6.214;2023-07-02T01:17:05;14.90;99.90
62339;DHT22;48368;53.406;6.214;2023-07-02T01:19:49;15.00;99.90
62339;DHT22;48368;53.406;6.214;2023-07-02T01:22:21;15.00;99.90
62339;DHT22;48368;53.406;6.214;2023-07-02T01:24:48;15.00;99.90
62339;DHT22;48368;53.406;6.214;2023-07-02T01:27:15;15.00;99.90
62339;DHT22;48368;53.406;6.214;2023-07-02T01:29:41;15.00;99.90
62339;DHT22;48368;53.406;6.214;2023-07-02T01:32:07;15.00;99.90
62339;DHT22;48368;53.406;6.214;2023-07-02T01:34:36;15.00;99.90
62339;DHT22;48368;53.406;6.214;2023-07-02T01:37:03;15.00;99.90
62339;DHT22;48368;53.406;6.214;2023-07-02T01:39:29;15.00;99.90
62339;DHT22;48368;53.406;6.214;2023-07-02T01:42:06;15.00;99.90
62339;DHT22;48368;53.406;6.214;2023-07-02T01:44:32;15.00;99.90
62339;DHT22;48368;53.406;6.214;2023-07-02T01:46:58;14.90;99.90
62339;DHT22;48368;53.406;6.214;2023-07-02T01:49:24;15.00;99.90
62339;DHT22;48368;53.406;6.214;2023-07-02T01:51:51;14.90;99.90
62339;DHT22;48368;53.406;6.214;2023-07-02T01:54:22;14.90;99.90
62339;DHT22;48368;53.406;6.214;2023-07-02T01:56:48;14.90;99.90
62339;DHT22;48368;53.406;6.214;2023-07-02T01:59:14;14.90;99.90
62339;DHT22;48368;53.406;6.214;2023-07-02T02:01:40;14.90;99.90
62339;DHT22;48368;53.406;6.214;2023-07-02T02:04:10;14.90;99.90
62339;DHT22;48368;53.406;6.214;2023-07-02T02:06:36;15.00;99.90
62339;DHT22;48368;53.406;6.214;2023-07-02T02:09:03;15.00;99.90
62339;DHT22;48368;53.406;6.214;2023-07-02T02:11:30;15.00;99.90
62339;DHT22;48368;53.406;6.214;2023-07-02T02:13:56;15.00;99.90
62339;DHT22;48368;53.406;6.214;2023-07-02T02:16:22;15.10;99.90
62339;DHT22;48368;53.406;6.214;2023-07-02T02:18:47;15.10;99.90
62339;DHT22;48368;53.406;6.214;2023-07-02T02:21:17;15.10;99.90
62339;DHT22;48368;53.406;6.214;2023-07-02T02:23:43;15.20;99.90
62339;DHT22;48368;53.406;6.214;2023-07-02T02:26:09;15.20;99.90
62339;DHT22;48368;53.406;6.214;2023-07-02T02:28:34;15.20;99.90
62339;DHT22;48368;53.406;6.214;2023-07-02T02:31:00;15.20;99.90
62339;DHT22;48368;53.406;6.214;2023-07-02T02:33:26;15.20;99.90
62339;DHT22;48368;53.406;6.214;2023-07-02T02:35:51;15.20;99.90
62339;DHT22;48368;53.406;6.214;2023-07-02T02:38:17;15.20;99.90
62339;DHT22;48368;53.406;6.214;2023-07-02T02:40:43;15.20;99.90
62339;DHT22;48368;53.406;6.214;2023-07-02T02:43:09;15.30;99.90
62339;DHT22;48368;53.406;6.214;2023-07-02T02:45:34;15.30;99.90
62339;DHT22;48368;53.406;6.214;2023-07-02T02:48:00;15.30;99.90
62339;DHT22;48368;53.406;6.214;2023-07-02T02:50:25;15.30;99.90
62339;DHT22;48368;53.406;6.214;2023-07-02T02:52:51;15.30;99.90
62339;DHT22;48368;53.406;6.214;2023-07-02T02:55:17;15.30;99.90
62339;DHT22;48368;53.406;6.214;2023-07-02T02:57:42;15.30;99.90
62339;DHT22;48368;53.406;6.214;2023-07-02T03:00:09;15.30;99.90
62339;DHT22;48368;53.406;6.214;2023-07-02T03:02:35;15.20;99.90
62339;DHT22;48368;53.406;6.214;2023-07-02T03:05:01;15.20;99.90
62339;DHT22;48368;53.406;6.214;2023-07-02T03:07:28;15.20;99.90
62339;DHT22;48368;53.406;6.214;2023-07-02T03:09:54;15.20;99.90
62339;DHT22;48368;53.406;6.214;2023-07-02T03:12:22;15.20;99.90
62339;DHT22;48368;53.406;6.214;2023-07-02T03:14:48;15.20;99.90
62339;DHT22;48368;53.406;6.214;2023-07-02T03:17:18;15.20;99.90
62339;DHT22;48368;53.406;6.214;2023-07-02T03:19:44;15.20;99.90
62339;DHT22;48368;53.406;6.214;2023-07-02T03:22:10;15.20;99.90
62339;DHT22;48368;53.406;6.214;2023-07-02T03:24:35;15.10;99.90
62339;DHT22;48368;53.406;6.214;2023-07-02T03:27:01;15.10;99.90
62339;DHT22;48368;53.406;6.214;2023-07-02T03:29:27;15.10;99.90
62339;DHT22;48368;53.406;6.214;2023-07-02T03:31:52;15.10;99.90
62339;DHT22;48368;53.406;6.214;2023-07-02T03:34:18;15.10;99.90
62339;DHT22;48368;53.406;6.214;2023-07-02T03:36:44;15.10;99.90
62339;DHT22;48368;53.406;6.214;2023-07-02T03:39:10;15.10;99.90
62339;DHT22;48368;53.406;6.214;2023-07-02T03:41:35;15.10;99.90
62339;DHT22;48368;53.406;6.214;2023-07-02T03:44:01;15.10;99.90
62339;DHT22;48368;53.406;6.214;2023-07-02T03:46:27;15.10;99.90
62339;DHT22;48368;53.406;6.214;2023-07-02T03:48:52;15.10;99.90
62339;DHT22;48368;53.406;6.214;2023-07-02T03:51:18;15.10;99.90
62339;DHT22;48368;53.406;6.214;2023-07-02T03:53:43;15.10;99.90
62339;DHT22;48368;53.406;6.214;2023-07-02T03:56:09;15.10;99.90
62339;DHT22;48368;53.406;6.214;2023-07-02T03:58:35;15.20;99.90
62339;DHT22;48368;53.406;6.214;2023-07-02T04:01:01;15.20;99.90
62339;DHT22;48368;53.406;6.214;2023-07-02T04:03:26;15.20;99.90
62339;DHT22;48368;53.406;6.214;2023-07-02T04:05:52;15.30;99.90
62339;DHT22;48368;53.406;6.214;2023-07-02T04:08:18;15.30;99.90
62339;DHT22;48368;53.406;6.214;2023-07-02T04:10:47;15.30;99.90
62339;DHT22;48368;53.406;6.214;2023-07-02T04:13:12;15.30;99.90
62339;DHT22;48368;53.406;6.214;2023-07-02T04:15:38;15.30;99.90
62339;DHT22;48368;53.406;6.214;2023-07-02T04:18:04;15.30;99.90
62339;DHT22;48368;53.406;6.214;2023-07-02T04:20:30;15.30;99.90
62339;DHT22;48368;53.406;6.214;2023-07-02T04:22:55;15.30;99.90
62339;DHT22;48368;53.406;6.214;2023-07-02T04:25:21;15.30;99.90
62339;DHT22;48368;53.406;6.214;2023-07-02T04:27:47;15.30;99.90
62339;DHT22;48368;53.406;6.214;2023-07-02T04:30:13;15.30;99.90
62339;DHT22;48368;53.406;6.214;2023-07-02T04:32:40;15.30;99.90
62339;DHT22;48368;53.406;6.214;2023-07-02T04:35:09;15.40;99.90
62339;DHT22;48368;53.406;6.214;2023-07-02T04:37:35;15.40;99.90
62339;DHT22;48368;53.406;6.214;2023-07-02T04:40:01;15.40;99.90
62339;DHT22;48368;53.406;6.214;2023-07-02T04:42:34;15.40;99.90
62339;DHT22;48368;53.406;6.214;2023-07-02T04:45:05;15.40;99.90
62339;DHT22;48368;53.406;6.214;2023-07-02T04:47:31;15.50;99.90
62339;DHT22;48368;53.406;6.214;2023-07-02T04:49:58;15.50;99.90
62339;DHT22;48368;53.406;6.214;2023-07-02T04:52:24;15.50;99.90
62339;DHT22;48368;53.406;6.214;2023-07-02T04:54:50;15.50;99.90
62339;DHT22;48368;53.406;6.214;2023-07-02T04:57:15;15.50;99.90
62339;DHT22;48368;53.406;6.214;2023-07-02T04:59:42;15.50;99.90
62339;DHT22;48368;53.406;6.214;2023-07-02T05:02:08;15.50;99.90
62339;DHT22;48368;53.406;6.214;2023-07-02T05:04:35;15.50;99.90
62339;DHT22;48368;53.406;6.214;2023-07-02T05:07:00;15.40;99.90
62339;DHT22;48368;53.406;6.214;2023-07-02T05:09:26;15.50;99.90
62339;DHT22;48368;53.406;6.214;2023-07-02T05:11:52;15.40;99.90
62339;DHT22;48368;53.406;6.214;2023-07-02T05:14:17;15.40;99.90
62339;DHT22;48368;53.406;6.214;2023-07-02T05:16:43;15.50;99.90
62339;DHT22;48368;53.406;6.214;2023-07-02T05:19:09;15.60;99.90
62339;DHT22;48368;53.406;6.214;2023-07-02T05:21:34;15.70;99.90
62339;DHT22;48368;53.406;6.214;2023-07-02T05:24:00;15.90;99.90
62339;DHT22;48368;53.406;6.214;2023-07-02T05:26:26;16.00;99.90
62339;DHT22;48368;53.406;6.214;2023-07-02T05:28:52;16.00;99.90
62339;DHT22;48368;53.406;6.214;2023-07-02T05:31:18;16.00;99.90
62339;DHT22;48368;53.406;6.214;2023-07-02T05:33:44;16.00;99.90
62339;DHT22;48368;53.406;6.214;2023-07-02T05:36:09;16.00;99.90
62339;DHT22;48368;53.406;6.214;2023-07-02T05:38:35;16.20;99.90
62339;DHT22;48368;53.406;6.214;2023-07-02T05:41:02;16.30;99.90
62339;DHT22;48368;53.406;6.214;2023-07-02T05:43:28;16.30;99.90
62339;DHT22;48368;53.406;6.214;2023-07-02T05:45:53;16.20;99.90
62339;DHT22;48368;53.406;6.214;2023-07-02T05:48:19;16.20;99.90
62339;DHT22;48368;53.406;6.214;2023-07-02T05:50:45;16.10;99.90
62339;DHT22;48368;53.406;6.214;2023-07-02T05:53:10;16.20;99.90
62339;DHT22;48368;53.406;6.214;2023-07-02T05:55:37;16.20;99.90
62339;DHT22;48368;53.406;6.214;2023-07-02T05:58:02;16.40;99.90
62339;DHT22;48368;53.406;6.214;2023-07-02T06:00:29;16.60;99.90
62339;DHT22;48368;53.406;6.214;2023-07-02T06:02:54;16.70;99.90
62339;DHT22;48368;53.406;6.214;2023-07-02T06:05:20;16.80;99.90
62339;DHT22;48368;53.406;6.214;2023-07-02T06:07:46;17.00;99.90
62339;DHT22;48368;53.406;6.214;2023-07-02T06:10:12;17.10;99.90
62339;DHT22;48368;53.406;6.214;2023-07-02T06:12:40;17.20;99.90
62339;DHT22;48368;53.406;6.214;2023-07-02T06:15:07;17.10;99.90
62339;DHT22;48368;53.406;6.214;2023-07-02T06:17:35;17.30;99.90
62339;DHT22;48368;53.406;6.214;2023-07-02T06:20:03;17.50;99.90
62339;DHT22;48368;53.406;6.214;2023-07-02T06:22:30;17.50;99.90
62339;DHT22;48368;53.406;6.214;2023-07-02T06:24:56;17.30;99.90
62339;DHT22;48368;53.406;6.214;2023-07-02T06:27:21;17.20;99.90
62339;DHT22;48368;53.406;6.214;2023-07-02T06:29:47;17.10;99.90
62339;DHT22;48368;53.406;6.214;2023-07-02T06:32:13;16.80;99.90
62339;DHT22;48368;53.406;6.214;2023-07-02T06:34:38;16.70;99.90
62339;DHT22;48368;53.406;6.214;2023-07-02T06:37:04;16.60;99.90
62339;DHT22;48368;53.406;6.214;2023-07-02T06:39:30;16.70;99.90
62339;DHT22;48368;53.406;6.214;2023-07-02T06:41:56;16.90;99.90
62339;DHT22;48368;53.406;6.214;2023-07-02T06:44:21;17.20;99.90
62339;DHT22;48368;53.406;6.214;2023-07-02T06:46:47;17.40;99.90
62339;DHT22;48368;53.406;6.214;2023-07-02T06:49:12;17.60;99.90
62339;DHT22;48368;53.406;6.214;2023-07-02T06:51:38;17.70;99.90
62339;DHT22;48368;53.406;6.214;2023-07-02T06:54:04;17.50;99.90
62339;DHT22;48368;53.406;6.214;2023-07-02T06:56:30;17.40;99.90
62339;DHT22;48368;53.406;6.214;2023-07-02T06:58:58;17.50;99.90
62339;DHT22;48368;53.406;6.214;2023-07-02T07:01:23;17.80;99.90
62339;DHT22;48368;53.406;6.214;2023-07-02T07:03:49;17.70;99.90
62339;DHT22;48368;53.406;6.214;2023-07-02T07:06:15;17.80;99.90
62339;DHT22;48368;53.406;6.214;2023-07-02T07:08:40;17.90;99.90
62339;DHT22;48368;53.406;6.214;2023-07-02T07:11:06;18.00;99.90
62339;DHT22;48368;53.406;6.214;2023-07-02T07:13:34;18.10;99.90
62339;DHT22;48368;53.406;6.214;2023-07-02T07:15:59;18.10;99.90
62339;DHT22;48368;53.406;6.214;2023-07-02T07:18:25;18.20;99.90
62339;DHT22;48368;53.406;6.214;2023-07-02T07:20:53;18.40;99.90
62339;DHT22;48368;53.406;6.214;2023-07-02T07:23:19;18.50;99.90
62339;DHT22;48368;53.406;6.214;2023-07-02T07:25:45;18.30;99.90
62339;DHT22;48368;53.406;6.214;2023-07-02T07:28:10;18.40;99.90
62339;DHT22;48368;53.406;6.214;2023-07-02T07:30:45;18.40;99.90
62339;DHT22;48368;53.406;6.214;2023-07-02T07:33:11;18.60;99.90
62339;DHT22;48368;53.406;6.214;2023-07-02T07:35:36;18.70;99.90
62339;DHT22;48368;53.406;6.214;2023-07-02T07:38:02;18.80;99.90
62339;DHT22;48368;53.406;6.214;2023-07-02T07:40:28;18.80;99.90
62339;DHT22;48368;53.406;6.214;2023-07-02T07:42:54;18.80;99.90
62339;DHT22;48368;53.406;6.214;2023-07-02T07:45:20;18.70;99.90
62339;DHT22;48368;53.406;6.214;2023-07-02T07:47:45;18.80;99.90
62339;DHT22;48368;53.406;6.214;2023-07-02T07:50:11;19.00;99.90
62339;DHT22;48368;53.406;6.214;2023-07-02T07:52:40;19.20;99.90
62339;DHT22;48368;53.406;6.214;2023-07-02T07:55:07;19.20;99.90
62339;DHT22;48368;53.406;6.214;2023-07-02T07:57:34;19.30;99.90
62339;DHT22;48368;53.406;6.214;2023-07-02T08:00:01;19.30;99.90
62339;DHT22;48368;53.406;6.214;2023-07-02T08:02:26;19.40;99.90
62339;DHT22;48368;53.406;6.214;2023-07-02T08:04:52;19.50;99.90
62339;DHT22;48368;53.406;6.214;2023-07-02T08:07:17;19.60;99.90
62339;DHT22;48368;53.406;6.214;2023-07-02T08:09:43;19.70;99.90
62339;DHT22;48368;53.406;6.214;2023-07-02T08:12:09;19.60;99.90
62339;DHT22;48368;53.406;6.214;2023-07-02T08:14:35;19.50;99.90
62339;DHT22;48368;53.406;6.214;2023-07-02T08:17:01;19.60;99.90
62339;DHT22;48368;53.406;6.214;2023-07-02T08:19:26;19.30;99.90
62339;DHT22;48368;53.406;6.214;2023-07-02T08:21:52;19.10;99.90
62339;DHT22;48368;53.406;6.214;2023-07-02T08:24:18;19.20;99.90
62339;DHT22;48368;53.406;6.214;2023-07-02T08:26:43;18.90;99.90
62339;DHT22;48368;53.406;6.214;2023-07-02T08:29:10;18.50;99.90
62339;DHT22;48368;53.406;6.214;2023-07-02T08:31:36;18.80;99.90
62339;DHT22;48368;53.406;6.214;2023-07-02T08:34:02;19.00;99.90
62339;DHT22;48368;53.406;6.214;2023-07-02T08:36:28;18.90;99.90
62339;DHT22;48368;53.406;6.214;2023-07-02T08:38:56;18.90;99.90
62339;DHT22;48368;53.406;6.214;2023-07-02T08:41:22;18.90;99.90
62339;DHT22;48368;53.406;6.214;2023-07-02T08:43:49;19.10;99.90
62339;DHT22;48368;53.406;6.214;2023-07-02T08:46:15;19.10;99.90
62339;DHT22;48368;53.406;6.214;2023-07-02T08:48:41;19.00;99.90
62339;DHT22;48368;53.406;6.214;2023-07-02T08:51:07;19.10;99.90
62339;DHT22;48368;53.406;6.214;2023-07-02T08:53:33;19.00;99.90
62339;DHT22;48368;53.406;6.214;2023-07-02T08:56:03;18.80;99.90
62339;DHT22;48368;53.406;6.214;2023-07-02T08:58:29;18.90;99.90
62339;DHT22;48368;53.406;6.214;2023-07-02T09:01:07;19.00;99.90
62339;DHT22;48368;53.406;6.214;2023-07-02T09:03:33;19.30;99.90
62339;DHT22;48368;53.406;6.214;2023-07-02T09:06:03;19.20;99.90
62339;DHT22;48368;53.406;6.214;2023-07-02T09:08:29;19.20;99.90
62339;DHT22;48368;53.406;6.214;2023-07-02T09:11:08;19.30;99.90
62339;DHT22;48368;53.406;6.214;2023-07-02T09:13:50;19.20;99.90
62339;DHT22;48368;53.406;6.214;2023-07-02T09:16:27;19.30;99.90
62339;DHT22;48368;53.406;6.214;2023-07-02T09:19:09;19.30;99.90
62339;DHT22;48368;53.406;6.214;2023-07-02T09:21:46;19.50;99.90
62339;DHT22;48368;53.406;6.214;2023-07-02T09:24:19;19.50;99.90
62339;DHT22;48368;53.406;6.214;2023-07-02T09:26:53;19.60;99.90
62339;DHT22;48368;53.406;6.214;2023-07-02T09:29:27;19.40;99.90
62339;DHT22;48368;53.406;6.214;2023-07-02T09:31:57;19.30;99.90
62339;DHT22;48368;53.406;6.214;2023-07-02T09:34:27;19.40;99.90
62339;DHT22;48368;53.406;6.214;2023-07-02T09:36:54;19.70;99.90
62339;DHT22;48368;53.406;6.214;2023-07-02T09:39:25;19.70;99.90
62339;DHT22;48368;53.406;6.214;2023-07-02T09:41:52;19.80;99.90
62339;DHT22;48368;53.406;6.214;2023-07-02T09:44:27;19.50;99.90
62339;DHT22;48368;53.406;6.214;2023-07-02T09:47:01;19.40;99.90
62339;DHT22;48368;53.406;6.214;2023-07-02T09:49:41;19.50;99.90
62339;DHT22;48368;53.406;6.214;2023-07-02T09:52:08;19.80;99.90
62339;DHT22;48368;53.406;6.214;2023-07-02T09:54:35;19.70;99.90
62339;DHT22;48368;53.406;6.214;2023-07-02T09:57:02;19.90;99.90
62339;DHT22;48368;53.406;6.214;2023-07-02T09:59:28;19.90;99.90
62339;DHT22;48368;53.406;6.214;2023-07-02T10:01:54;19.80;99.90
62339;DHT22;48368;53.406;6.214;2023-07-02T10:04:21;19.90;99.90
62339;DHT22;48368;53.406;6.214;2023-07-02T10:06:54;20.10;99.90
62339;DHT22;48368;53.406;6.214;2023-07-02T10:09:22;20.10;99.90
62339;DHT22;48368;53.406;6.214;2023-07-02T10:12:00;20.20;99.90
62339;DHT22;48368;53.406;6.214;2023-07-02T10:14:25;20.30;99.90
62339;DHT22;48368;53.406;6.214;2023-07-02T10:16:55;20.60;99.90
62339;DHT22;48368;53.406;6.214;2023-07-02T10:19:21;20.80;99.90
62339;DHT22;48368;53.406;6.214;2023-07-02T10:22:00;21.00;99.90
62339;DHT22;48368;53.406;6.214;2023-07-02T10:24:25;21.00;99.90
62339;DHT22;48368;53.406;6.214;2023-07-02T10:26:55;21.00;99.90
62339;DHT22;48368;53.406;6.214;2023-07-02T10:29:23;21.00;99.90
62339;DHT22;48368;53.406;6.214;2023-07-02T10:31:50;21.20;99.90
62339;DHT22;48368;53.406;6.214;2023-07-02T10:34:27;21.00;99.90
62339;DHT22;48368;53.406;6.214;2023-07-02T10:36:56;20.90;99.90
62339;DHT22;48368;53.406;6.214;2023-07-02T10:39:22;20.40;99.90
62339;DHT22;48368;53.406;6.214;2023-07-02T10:41:48;20.30;99.90
62339;DHT22;48368;53.406;6.214;2023-07-02T10:44:14;20.50;99.90
62339;DHT22;48368;53.406;6.214;2023-07-02T10:46:45;20.70;99.90
62339;DHT22;48368;53.406;6.214;2023-07-02T10:49:16;20.70;99.90
62339;DHT22;48368;53.406;6.214;2023-07-02T10:51:42;20.80;99.90
62339;DHT22;48368;53.406;6.214;2023-07-02T10:54:08;20.50;99.90
62339;DHT22;48368;53.406;6.214;2023-07-02T10:56:34;20.60;99.90
62339;DHT22;48368;53.406;6.214;2023-07-02T10:59:00;20.60;99.90
62339;DHT22;48368;53.406;6.214;2023-07-02T11:01:28;20.80;99.90
62339;DHT22;48368;53.406;6.214;2023-07-02T11:03:58;20.90;99.90
62339;DHT22;48368;53.406;6.214;2023-07-02T11:06:25;20.80;99.90
62339;DHT22;48368;53.406;6.214;2023-07-02T11:08:51;21.00;99.90
62339;DHT22;48368;53.406;6.214;2023-07-02T11:11:17;21.20;99.90
62339;DHT22;48368;53.406;6.214;2023-07-02T11:13:46;21.10;99.90
62339;DHT22;48368;53.406;6.214;2023-07-02T11:16:24;21.20;99.90
62339;DHT22;48368;53.406;6.214;2023-07-02T11:19:08;21.30;99.90
62339;DHT22;48368;53.406;6.214;2023-07-02T11:21:34;21.40;99.90
62339;DHT22;48368;53.406;6.214;2023-07-02T11:24:04;21.30;99.90
62339;DHT22;48368;53.406;6.214;2023-07-02T11:26:40;21.50;99.90
62339;DHT22;48368;53.406;6.214;2023-07-02T11:29:17;21.70;99.90
62339;DHT22;48368;53.406;6.214;2023-07-02T11:31:43;21.50;99.90
62339;DHT22;48368;53.406;6.214;2023-07-02T11:34:17;21.10;99.90
62339;DHT22;48368;53.406;6.214;2023-07-02T11:36:43;20.60;99.90
62339;DHT22;48368;53.406;6.214;2023-07-02T11:39:09;20.80;99.90
62339;DHT22;48368;53.406;6.214;2023-07-02T11:41:42;20.80;99.90
62339;DHT22;48368;53.406;6.214;2023-07-02T11:44:08;20.40;99.90
62339;DHT22;48368;53.406;6.214;2023-07-02T11:46:34;20.20;99.90
62339;DHT22;48368;53.406;6.214;2023-07-02T11:49:00;20.00;99.90
62339;DHT22;48368;53.406;6.214;2023-07-02T11:51:26;20.20;99.90
62339;DHT22;48368;53.406;6.214;2023-07-02T11:53:52;20.40;99.90
62339;DHT22;48368;53.406;6.214;2023-07-02T11:56:18;20.60;99.90
62339;DHT22;48368;53.406;6.214;2023-07-02T11:58:44;20.80;99.90
62339;DHT22;48368;53.406;6.214;2023-07-02T12:01:10;20.90;99.90
62339;DHT22;48368;53.406;6.214;2023-07-02T12:03:35;21.00;99.90
62339;DHT22;48368;53.406;6.214;2023-07-02T12:06:01;21.20;99.90
62339;DHT22;48368;53.406;6.214;2023-07-02T12:08:27;21.00;99.90
62339;DHT22;48368;53.406;6.214;2023-07-02T12:10:52;21.00;99.90
62339;DHT22;48368;53.406;6.214;2023-07-02T12:13:18;21.20;99.90
62339;DHT22;48368;53.406;6.214;2023-07-02T12:15:47;21.40;99.90
62339;DHT22;48368;53.406;6.214;2023-07-02T12:18:13;21.30;99.90
62339;DHT22;48368;53.406;6.214;2023-07-02T12:20:41;21.10;99.90
62339;DHT22;48368;53.406;6.214;2023-07-02T12:23:07;21.20;99.90
62339;DHT22;48368;53.406;6.214;2023-07-02T12:25:33;21.00;99.90
62339;DHT22;48368;53.406;6.214;2023-07-02T12:27:58;20.90;99.90
62339;DHT22;48368;53.406;6.214;2023-07-02T12:30:24;20.90;99.90
62339;DHT22;48368;53.406;6.214;2023-07-02T12:32:50;21.00;99.90
62339;DHT22;48368;53.406;6.214;2023-07-02T12:35:15;21.20;99.90
62339;DHT22;48368;53.406;6.214;2023-07-02T12:37:49;21.30;99.90
62339;DHT22;48368;53.406;6.214;2023-07-02T12:40:15;21.00;99.90
62339;DHT22;48368;53.406;6.214;2023-07-02T12:42:42;20.80;99.90
62339;DHT22;48368;53.406;6.214;2023-07-02T12:45:09;21.00;99.90
62339;DHT22;48368;53.406;6.214;2023-07-02T12:47:35;21.00;99.90
62339;DHT22;48368;53.406;6.214;2023-07-02T12:50:01;20.90;99.90
62339;DHT22;48368;53.406;6.214;2023-07-02T12:52:28;20.70;99.90
62339;DHT22;48368;53.406;6.214;2023-07-02T12:54:54;20.30;99.90
62339;DHT22;48368;53.406;6.214;2023-07-02T12:57:20;20.20;99.90
62339;DHT22;48368;53.406;6.214;2023-07-02T12:59:45;20.20;99.90
62339;DHT22;48368;53.406;6.214;2023-07-02T13:02:11;20.20;99.90
62339;DHT22;48368;53.406;6.214;2023-07-02T13:04:38;20.40;99.90
62339;DHT22;48368;53.406;6.214;2023-07-02T13:07:04;20.60;99.90
62339;DHT22;48368;53.406;6.214;2023-07-02T13:09:29;20.70;99.90
62339;DHT22;48368;53.406;6.214;2023-07-02T13:11:55;20.80;99.90
62339;DHT22;48368;53.406;6.214;2023-07-02T13:14:20;20.80;99.90
62339;DHT22;48368;53.406;6.214;2023-07-02T13:16:46;20.80;99.90
62339;DHT22;48368;53.406;6.214;2023-07-02T13:19:13;20.90;99.90
62339;DHT22;48368;53.406;6.214;2023-07-02T13:21:38;20.90;99.90
62339;DHT22;48368;53.406;6.214;2023-07-02T13:24:04;20.80;99.90
62339;DHT22;48368;53.406;6.214;2023-07-02T13:26:30;20.40;99.90
62339;DHT22;48368;53.406;6.214;2023-07-02T13:28:55;20.20;99.90
62339;DHT22;48368;53.406;6.214;2023-07-02T13:31:21;20.40;99.90
62339;DHT22;48368;53.406;6.214;2023-07-02T13:33:47;20.70;99.90
62339;DHT22;48368;53.406;6.214;2023-07-02T13:36:13;20.70;99.90
62339;DHT22;48368;53.406;6.214;2023-07-02T13:38:39;20.70;99.90
62339;DHT22;48368;53.406;6.214;2023-07-02T13:41:05;20.80;99.90
62339;DHT22;48368;53.406;6.214;2023-07-02T13:43:30;20.80;99.90
62339;DHT22;48368;53.406;6.214;2023-07-02T13:45:56;20.90;99.90
62339;DHT22;48368;53.406;6.214;2023-07-02T13:48:22;20.90;99.90
62339;DHT22;48368;53.406;6.214;2023-07-02T13:50:48;20.70;99.90
62339;DHT22;48368;53.406;6.214;2023-07-02T13:53:13;20.50;99.90
62339;DHT22;48368;53.406;6.214;2023-07-02T13:55:39;20.20;99.90
62339;DHT22;48368;53.406;6.214;2023-07-02T13:58:04;20.10;99.90
62339;DHT22;48368;53.406;6.214;2023-07-02T14:00:30;19.90;99.90
62339;DHT22;48368;53.406;6.214;2023-07-02T14:02:56;19.90;99.90
62339;DHT22;48368;53.406;6.214;2023-07-02T14:05:21;19.70;99.90
62339;DHT22;48368;53.406;6.214;2023-07-02T14:07:47;19.60;99.90
62339;DHT22;48368;53.406;6.214;2023-07-02T14:10:14;19.50;99.90
62339;DHT22;48368;53.406;6.214;2023-07-02T14:12:41;19.30;99.90
62339;DHT22;48368;53.406;6.214;2023-07-02T14:15:07;19.40;99.90
62339;DHT22;48368;53.406;6.214;2023-07-02T14:17:33;19.60;99.90
62339;DHT22;48368;53.406;6.214;2023-07-02T14:19:59;19.50;99.90
62339;DHT22;48368;53.406;6.214;2023-07-02T14:22:25;19.40;99.90
62339;DHT22;48368;53.406;6.214;2023-07-02T14:24:51;19.60;99.90
62339;DHT22;48368;53.406;6.214;2023-07-02T14:27:17;19.80;99.90
62339;DHT22;48368;53.406;6.214;2023-07-02T14:29:42;19.80;99.90
62339;DHT22;48368;53.406;6.214;2023-07-02T14:32:08;19.90;99.90
62339;DHT22;48368;53.406;6.214;2023-07-02T14:34:34;20.10;99.90
62339;DHT22;48368;53.406;6.214;2023-07-02T14:37:01;20.20;99.90
62339;DHT22;48368;53.406;6.214;2023-07-02T14:39:27;20.20;99.90
62339;DHT22;48368;53.406;6.214;2023-07-02T14:41:52;20.20;99.90
62339;DHT22;48368;53.406;6.214;2023-07-02T14:44:18;19.90;99.90
62339;DHT22;48368;53.406;6.214;2023-07-02T14:46:43;19.80;99.90
62339;DHT22;48368;53.406;6.214;2023-07-02T14:49:09;19.80;99.90
62339;DHT22;48368;53.406;6.214;2023-07-02T14:51:35;19.80;99.90
62339;DHT22;48368;53.406;6.214;2023-07-02T14:54:01;19.80;99.90
62339;DHT22;48368;53.406;6.214;2023-07-02T14:56:29;19.80;99.90
62339;DHT22;48368;53.406;6.214;2023-07-02T14:58:55;19.70;99.90
62339;DHT22;48368;53.406;6.214;2023-07-02T15:01:21;19.90;99.90
62339;DHT22;48368;53.406;6.214;2023-07-02T15:03:47;20.00;99.90
62339;DHT22;48368;53.406;6.214;2023-07-02T15:06:15;20.20;99.90
62339;DHT22;48368;53.406;6.214;2023-07-02T15:08:41;20.20;99.90
62339;DHT22;48368;53.406;6.214;2023-07-02T15:11:08;20.10;99.90
62339;DHT22;48368;53.406;6.214;2023-07-02T15:13:34;20.00;99.90
62339;DHT22;48368;53.406;6.214;2023-07-02T15:16:01;19.90;99.90
62339;DHT22;48368;53.406;6.214;2023-07-02T15:18:29;20.10;99.90
62339;DHT22;48368;53.406;6.214;2023-07-02T15:20:55;20.20;99.90
62339;DHT22;48368;53.406;6.214;2023-07-02T15:23:25;20.10;99.90
62339;DHT22;48368;53.406;6.214;2023-07-02T15:26:00;20.10;99.90
62339;DHT22;48368;53.406;6.214;2023-07-02T15:28:27;19.90;99.90